sensor_id;sensor_type;location;lat;lon;timestamp;P1;durP1;ratioP1;P2;durP2;ratioP2
66585;SDS011;53444;45.822;16.092;2023-10-09T00:01:51;1.58;;;0.80;;
66585;SDS011;53444;45.822;16.092;2023-10-09T00:04:18;1.92;;;0.75;;
66585;SDS011;53444;45.822;16.092;2023-10-09T00:06:47;3.15;;;1.30;;
66585;SDS011;53444;45.822;16.092;2023-10-09T00:09:14;1.85;;;0.80;;
66585;SDS011;53444;45.822;16.092;2023-10-09T00:12:00;3.55;;;0.75;;
66585;SDS011;53444;45.822;16.092;2023-10-09T00:14:28;1.77;;;0.90;;
66585;SDS011;53444;45.822;16.092;2023-10-09T00:16:58;1.90;;;0.70;;
66585;SDS011;53444;45.822;16.092;2023-10-09T00:19:43;1.77;;;0.80;;
66585;SDS011;53444;45.822;16.092;2023-10-09T00:22:11;2.10;;;0.80;;
66585;SDS011;53444;45.822;16.092;2023-10-09T00:24:50;1.85;;;0.80;;
66585;SDS011;53444;45.822;16.092;2023-10-09T00:27:36;1.75;;;0.63;;
66585;SDS011;53444;45.822;16.092;2023-10-09T00:30:07;1.80;;;0.80;;
66585;SDS011;53444;45.822;16.092;2023-10-09T00:32:34;1.52;;;0.82;;
66585;SDS011;53444;45.822;16.092;2023-10-09T00:35:02;1.70;;;0.80;;
66585;SDS011;53444;45.822;16.092;2023-10-09T00:37:59;2.70;;;1.10;;
66585;SDS011;53444;45.822;16.092;2023-10-09T00:40:32;2.97;;;1.08;;
66585;SDS011;53444;45.822;16.092;2023-10-09T00:43:04;1.98;;;0.82;;
66585;SDS011;53444;45.822;16.092;2023-10-09T00:45:38;4.07;;;0.88;;
66585;SDS011;53444;45.822;16.092;2023-10-09T00:48:05;3.53;;;0.73;;
66585;SDS011;53444;45.822;16.092;2023-10-09T00:50:34;3.90;;;0.82;;
66585;SDS011;53444;45.822;16.092;2023-10-09T00:53:03;1.50;;;0.80;;
66585;SDS011;53444;45.822;16.092;2023-10-09T00:55:43;2.15;;;0.90;;
66585;SDS011;53444;45.822;16.092;2023-10-09T00:58:22;2.38;;;0.68;;
66585;SDS011;53444;45.822;16.092;2023-10-09T01:00:56;3.63;;;1.00;;
66585;SDS011;53444;45.822;16.092;2023-10-09T01:03:24;2.22;;;0.88;;
66585;SDS011;53444;45.822;16.092;2023-10-09T01:05:53;3.03;;;0.90;;
66585;SDS011;53444;45.822;16.092;2023-10-09T01:08:23;2.35;;;1.00;;
66585;SDS011;53444;45.822;16.092;2023-10-09T01:10:56;2.80;;;0.90;;
66585;SDS011;53444;45.822;16.092;2023-10-09T01:13:35;2.58;;;0.90;;
66585;SDS011;53444;45.822;16.092;2023-10-09T01:16:18;2.15;;;0.80;;
66585;SDS011;53444;45.822;16.092;2023-10-09T01:18:47;1.65;;;0.77;;
66585;SDS011;53444;45.822;16.092;2023-10-09T01:21:15;3.80;;;0.98;;
66585;SDS011;53444;45.822;16.092;2023-10-09T01:23:44;3.53;;;0.90;;
66585;SDS011;53444;45.822;16.092;2023-10-09T01:26:28;2.90;;;0.88;;
66585;SDS011;53444;45.822;16.092;2023-10-09T01:28:57;1.88;;;0.80;;
66585;SDS011;53444;45.822;16.092;2023-10-09T01:31:25;2.00;;;0.80;;
66585;SDS011;53444;45.822;16.092;2023-10-09T01:33:52;1.85;;;0.82;;
66585;SDS011;53444;45.822;16.092;2023-10-09T01:36:24;2.38;;;0.70;;
66585;SDS011;53444;45.822;16.092;2023-10-09T01:38:58;3.05;;;0.90;;
66585;SDS011;53444;45.822;16.092;2023-10-09T01:41:26;2.65;;;1.02;;
66585;SDS011;53444;45.822;16.092;2023-10-09T01:43:53;3.08;;;0.80;;
66585;SDS011;53444;45.822;16.092;2023-10-09T01:46:25;1.65;;;0.80;;
66585;SDS011;53444;45.822;16.092;2023-10-09T01:48:52;1.65;;;0.82;;
66585;SDS011;53444;45.822;16.092;2023-10-09T01:51:19;2.78;;;0.98;;
66585;SDS011;53444;45.822;16.092;2023-10-09T01:53:46;7.50;;;1.10;;
66585;SDS011;53444;45.822;16.092;2023-10-09T01:56:21;5.15;;;1.00;;
66585;SDS011;53444;45.822;16.092;2023-10-09T01:58:47;4.57;;;1.17;;
66585;SDS011;53444;45.822;16.092;2023-10-09T02:01:15;2.20;;;0.85;;
66585;SDS011;53444;45.822;16.092;2023-10-09T02:03:42;1.88;;;0.90;;
66585;SDS011;53444;45.822;16.092;2023-10-09T02:06:10;1.73;;;0.80;;
66585;SDS011;53444;45.822;16.092;2023-10-09T02:08:55;2.67;;;0.80;;
66585;SDS011;53444;45.822;16.092;2023-10-09T02:11:24;2.60;;;1.10;;
66585;SDS011;53444;45.822;16.092;2023-10-09T02:14:02;2.53;;;0.70;;
66585;SDS011;53444;45.822;16.092;2023-10-09T02:16:41;2.60;;;0.88;;
66585;SDS011;53444;45.822;16.092;2023-10-09T02:19:08;3.50;;;0.80;;
66585;SDS011;53444;45.822;16.092;2023-10-09T02:21:53;5.75;;;0.95;;
66585;SDS011;53444;45.822;16.092;2023-10-09T02:24:21;1.63;;;0.80;;
66585;SDS011;53444;45.822;16.092;2023-10-09T02:27:08;3.00;;;1.08;;
66585;SDS011;53444;45.822;16.092;2023-10-09T02:29:37;1.77;;;0.80;;
66585;SDS011;53444;45.822;16.092;2023-10-09T02:32:07;3.33;;;1.00;;
66585;SDS011;53444;45.822;16.092;2023-10-09T02:34:49;4.10;;;1.15;;
66585;SDS011;53444;45.822;16.092;2023-10-09T02:37:18;2.70;;;1.02;;
66585;SDS011;53444;45.822;16.092;2023-10-09T02:39:48;1.48;;;0.80;;
66585;SDS011;53444;45.822;16.092;2023-10-09T02:42:18;2.10;;;0.98;;
66585;SDS011;53444;45.822;16.092;2023-10-09T02:44:48;2.15;;;0.98;;
66585;SDS011;53444;45.822;16.092;2023-10-09T02:47:16;2.55;;;1.10;;
66585;SDS011;53444;45.822;16.092;2023-10-09T02:49:45;2.28;;;0.95;;
66585;SDS011;53444;45.822;16.092;2023-10-09T02:52:15;2.85;;;1.05;;
66585;SDS011;53444;45.822;16.092;2023-10-09T02:54:44;1.70;;;0.80;;
66585;SDS011;53444;45.822;16.092;2023-10-09T02:57:12;2.70;;;1.10;;
66585;SDS011;53444;45.822;16.092;2023-10-09T02:59:48;3.55;;;1.15;;
66585;SDS011;53444;45.822;16.092;2023-10-09T03:04:51;3.38;;;0.90;;
66585;SDS011;53444;45.822;16.092;2023-10-09T03:07:20;3.58;;;1.00;;
66585;SDS011;53444;45.822;16.092;2023-10-09T03:09:48;2.10;;;0.95;;
66585;SDS011;53444;45.822;16.092;2023-10-09T03:12:15;2.33;;;0.80;;
66585;SDS011;53444;45.822;16.092;2023-10-09T03:14:44;3.13;;;1.25;;
66585;SDS011;53444;45.822;16.092;2023-10-09T03:17:12;3.58;;;1.00;;
66585;SDS011;53444;45.822;16.092;2023-10-09T03:19:38;3.72;;;1.23;;
66585;SDS011;53444;45.822;16.092;2023-10-09T03:24:36;3.65;;;1.00;;
66585;SDS011;53444;45.822;16.092;2023-10-09T03:27:03;3.97;;;1.42;;
66585;SDS011;53444;45.822;16.092;2023-10-09T03:29:30;2.20;;;0.95;;
66585;SDS011;53444;45.822;16.092;2023-10-09T03:31:56;1.50;;;0.82;;
66585;SDS011;53444;45.822;16.092;2023-10-09T03:34:26;3.25;;;0.90;;
66585;SDS011;53444;45.822;16.092;2023-10-09T03:36:56;3.92;;;1.20;;
66585;SDS011;53444;45.822;16.092;2023-10-09T03:39:29;4.38;;;1.20;;
66585;SDS011;53444;45.822;16.092;2023-10-09T03:42:06;2.90;;;0.90;;
66585;SDS011;53444;45.822;16.092;2023-10-09T03:44:43;2.80;;;0.90;;
66585;SDS011;53444;45.822;16.092;2023-10-09T03:47:14;2.60;;;1.30;;
66585;SDS011;53444;45.822;16.092;2023-10-09T03:49:43;2.50;;;0.98;;
66585;SDS011;53444;45.822;16.092;2023-10-09T03:52:10;3.20;;;0.88;;
66585;SDS011;53444;45.822;16.092;2023-10-09T03:54:42;4.68;;;1.15;;
66585;SDS011;53444;45.822;16.092;2023-10-09T03:57:09;5.22;;;1.15;;
66585;SDS011;53444;45.822;16.092;2023-10-09T03:59:36;2.65;;;1.20;;
66585;SDS011;53444;45.822;16.092;2023-10-09T04:02:03;5.82;;;1.20;;
66585;SDS011;53444;45.822;16.092;2023-10-09T04:04:29;5.07;;;1.27;;
66585;SDS011;53444;45.822;16.092;2023-10-09T04:06:59;3.08;;;1.27;;
66585;SDS011;53444;45.822;16.092;2023-10-09T04:09:26;4.63;;;1.17;;
66585;SDS011;53444;45.822;16.092;2023-10-09T04:12:04;2.13;;;1.08;;
66585;SDS011;53444;45.822;16.092;2023-10-09T04:14:54;4.90;;;1.33;;
66585;SDS011;53444;45.822;16.092;2023-10-09T04:17:22;3.83;;;1.13;;
66585;SDS011;53444;45.822;16.092;2023-10-09T04:19:59;3.17;;;1.08;;
66585;SDS011;53444;45.822;16.092;2023-10-09T04:22:41;3.88;;;1.10;;
66585;SDS011;53444;45.822;16.092;2023-10-09T04:25:15;2.08;;;0.90;;
66585;SDS011;53444;45.822;16.092;2023-10-09T04:27:45;4.13;;;1.35;;
66585;SDS011;53444;45.822;16.092;2023-10-09T04:30:12;4.10;;;1.15;;
66585;SDS011;53444;45.822;16.092;2023-10-09T04:32:40;2.88;;;1.20;;
66585;SDS011;53444;45.822;16.092;2023-10-09T04:35:09;3.08;;;1.60;;
66585;SDS011;53444;45.822;16.092;2023-10-09T04:37:50;2.83;;;1.48;;
66585;SDS011;53444;45.822;16.092;2023-10-09T04:40:17;2.50;;;1.20;;
66585;SDS011;53444;45.822;16.092;2023-10-09T04:43:06;3.38;;;1.48;;
66585;SDS011;53444;45.822;16.092;2023-10-09T04:45:35;4.07;;;1.52;;
66585;SDS011;53444;45.822;16.092;2023-10-09T04:48:21;3.17;;;1.10;;
66585;SDS011;53444;45.822;16.092;2023-10-09T04:51:02;5.65;;;1.38;;
66585;SDS011;53444;45.822;16.092;2023-10-09T04:53:48;5.80;;;1.75;;
66585;SDS011;53444;45.822;16.092;2023-10-09T04:56:25;4.65;;;1.52;;
66585;SDS011;53444;45.822;16.092;2023-10-09T04:58:56;2.63;;;1.33;;
66585;SDS011;53444;45.822;16.092;2023-10-09T05:01:28;5.93;;;1.50;;
66585;SDS011;53444;45.822;16.092;2023-10-09T05:04:03;4.05;;;1.48;;
66585;SDS011;53444;45.822;16.092;2023-10-09T05:06:47;5.70;;;1.30;;
66585;SDS011;53444;45.822;16.092;2023-10-09T05:09:22;3.60;;;1.38;;
66585;SDS011;53444;45.822;16.092;2023-10-09T05:11:49;2.95;;;1.20;;
66585;SDS011;53444;45.822;16.092;2023-10-09T05:14:41;3.28;;;1.70;;
66585;SDS011;53444;45.822;16.092;2023-10-09T05:17:19;8.35;;;1.75;;
66585;SDS011;53444;45.822;16.092;2023-10-09T05:19:50;3.97;;;1.38;;
66585;SDS011;53444;45.822;16.092;2023-10-09T05:22:42;3.70;;;1.33;;
66585;SDS011;53444;45.822;16.092;2023-10-09T05:25:23;6.47;;;1.55;;
66585;SDS011;53444;45.822;16.092;2023-10-09T05:28:07;3.90;;;1.80;;
66585;SDS011;53444;45.822;16.092;2023-10-09T05:30:47;4.18;;;1.30;;
66585;SDS011;53444;45.822;16.092;2023-10-09T05:33:20;3.03;;;1.50;;
66585;SDS011;53444;45.822;16.092;2023-10-09T05:35:58;4.32;;;1.48;;
66585;SDS011;53444;45.822;16.092;2023-10-09T05:38:42;2.60;;;1.33;;
66585;SDS011;53444;45.822;16.092;2023-10-09T05:41:13;3.90;;;1.73;;
66585;SDS011;53444;45.822;16.092;2023-10-09T05:44:12;6.47;;;3.10;;
66585;SDS011;53444;45.822;16.092;2023-10-09T05:46:55;3.58;;;1.60;;
66585;SDS011;53444;45.822;16.092;2023-10-09T05:49:43;4.15;;;1.70;;
66585;SDS011;53444;45.822;16.092;2023-10-09T05:52:19;5.35;;;1.77;;
66585;SDS011;53444;45.822;16.092;2023-10-09T05:55:12;3.80;;;1.67;;
66585;SDS011;53444;45.822;16.092;2023-10-09T05:58:03;2.60;;;1.60;;
66585;SDS011;53444;45.822;16.092;2023-10-09T06:00:47;7.80;;;1.33;;
66585;SDS011;53444;45.822;16.092;2023-10-09T06:03:52;5.50;;;1.38;;
66585;SDS011;53444;45.822;16.092;2023-10-09T06:06:29;2.55;;;1.10;;
66585;SDS011;53444;45.822;16.092;2023-10-09T06:08:59;1.58;;;1.00;;
66585;SDS011;53444;45.822;16.092;2023-10-09T06:11:45;4.13;;;1.60;;
66585;SDS011;53444;45.822;16.092;2023-10-09T06:14:21;2.92;;;1.50;;
66585;SDS011;53444;45.822;16.092;2023-10-09T06:16:50;3.45;;;1.42;;
66585;SDS011;53444;45.822;16.092;2023-10-09T06:19:50;7.18;;;1.55;;
66585;SDS011;53444;45.822;16.092;2023-10-09T06:22:23;6.18;;;2.00;;
66585;SDS011;53444;45.822;16.092;2023-10-09T06:25:10;3.80;;;1.92;;
66585;SDS011;53444;45.822;16.092;2023-10-09T06:27:41;6.75;;;2.13;;
66585;SDS011;53444;45.822;16.092;2023-10-09T06:30:28;5.18;;;1.92;;
66585;SDS011;53444;45.822;16.092;2023-10-09T06:32:54;7.32;;;2.58;;
66585;SDS011;53444;45.822;16.092;2023-10-09T06:35:45;5.60;;;1.98;;
66585;SDS011;53444;45.822;16.092;2023-10-09T06:38:18;4.95;;;2.05;;
66585;SDS011;53444;45.822;16.092;2023-10-09T06:40:52;4.45;;;2.03;;
66585;SDS011;53444;45.822;16.092;2023-10-09T06:43:42;5.43;;;1.95;;
66585;SDS011;53444;45.822;16.092;2023-10-09T06:46:19;5.13;;;1.92;;
66585;SDS011;53444;45.822;16.092;2023-10-09T06:49:09;6.25;;;2.20;;
66585;SDS011;53444;45.822;16.092;2023-10-09T06:51:52;4.68;;;2.40;;
66585;SDS011;53444;45.822;16.092;2023-10-09T06:54:20;4.75;;;1.88;;
66585;SDS011;53444;45.822;16.092;2023-10-09T06:56:50;9.98;;;2.28;;
66585;SDS011;53444;45.822;16.092;2023-10-09T06:59:37;7.20;;;2.30;;
66585;SDS011;53444;45.822;16.092;2023-10-09T07:02:25;5.40;;;1.65;;
66585;SDS011;53444;45.822;16.092;2023-10-09T07:04:52;2.60;;;1.70;;
66585;SDS011;53444;45.822;16.092;2023-10-09T07:07:20;5.20;;;1.15;;
66585;SDS011;53444;45.822;16.092;2023-10-09T07:09:49;5.03;;;1.33;;
66585;SDS011;53444;45.822;16.092;2023-10-09T07:12:35;5.00;;;1.60;;
66585;SDS011;53444;45.822;16.092;2023-10-09T07:15:08;5.63;;;1.85;;
66585;SDS011;53444;45.822;16.092;2023-10-09T07:17:53;4.40;;;1.40;;
66585;SDS011;53444;45.822;16.092;2023-10-09T07:20:20;4.72;;;1.20;;
66585;SDS011;53444;45.822;16.092;2023-10-09T07:24:11;3.55;;;1.23;;
66585;SDS011;53444;45.822;16.092;2023-10-09T07:26:49;3.57;;;1.50;;
66585;SDS011;53444;45.822;16.092;2023-10-09T07:29:18;6.05;;;1.90;;
66585;SDS011;53444;45.822;16.092;2023-10-09T07:32:05;17.65;;;7.13;;
66585;SDS011;53444;45.822;16.092;2023-10-09T07:34:42;13.68;;;6.18;;
66585;SDS011;53444;45.822;16.092;2023-10-09T07:37:47;10.68;;;4.03;;
66585;SDS011;53444;45.822;16.092;2023-10-09T07:40:17;11.40;;;3.83;;
66585;SDS011;53444;45.822;16.092;2023-10-09T07:43:08;4.30;;;2.15;;
66585;SDS011;53444;45.822;16.092;2023-10-09T07:52:27;7.15;;;2.58;;
66585;SDS011;53444;45.822;16.092;2023-10-09T07:55:16;9.40;;;2.00;;
66585;SDS011;53444;45.822;16.092;2023-10-09T07:58:21;6.70;;;1.85;;
66585;SDS011;53444;45.822;16.092;2023-10-09T08:00:52;4.20;;;1.73;;
66585;SDS011;53444;45.822;16.092;2023-10-09T08:04:05;7.85;;;2.65;;
66585;SDS011;53444;45.822;16.092;2023-10-09T08:06:42;9.57;;;2.92;;
66585;SDS011;53444;45.822;16.092;2023-10-09T08:09:37;5.17;;;1.80;;
66585;SDS011;53444;45.822;16.092;2023-10-09T08:16:01;9.23;;;2.45;;
66585;SDS011;53444;45.822;16.092;2023-10-09T08:19:04;6.10;;;1.80;;
66585;SDS011;53444;45.822;16.092;2023-10-09T08:22:37;5.78;;;1.70;;
66585;SDS011;53444;45.822;16.092;2023-10-09T08:25:10;8.00;;;2.00;;
66585;SDS011;53444;45.822;16.092;2023-10-09T08:45:55;4.03;;;2.50;;
66585;SDS011;53444;45.822;16.092;2023-10-09T08:57:24;7.93;;;2.88;;
66585;SDS011;53444;45.822;16.092;2023-10-09T09:03:18;5.50;;;2.03;;
66585;SDS011;53444;45.822;16.092;2023-10-09T09:05:47;4.85;;;2.20;;
66585;SDS011;53444;45.822;16.092;2023-10-09T09:11:35;4.93;;;2.17;;
66585;SDS011;53444;45.822;16.092;2023-10-09T09:14:15;4.75;;;2.10;;
66585;SDS011;53444;45.822;16.092;2023-10-09T09:17:00;5.15;;;2.17;;
66585;SDS011;53444;45.822;16.092;2023-10-09T09:19:33;3.45;;;1.60;;
66585;SDS011;53444;45.822;16.092;2023-10-09T09:22:07;5.10;;;1.77;;
66585;SDS011;53444;45.822;16.092;2023-10-09T09:24:40;3.13;;;1.75;;
66585;SDS011;53444;45.822;16.092;2023-10-09T09:27:43;4.65;;;1.70;;
66585;SDS011;53444;45.822;16.092;2023-10-09T09:33:16;3.38;;;2.05;;
66585;SDS011;53444;45.822;16.092;2023-10-09T09:38:32;3.22;;;1.52;;
66585;SDS011;53444;45.822;16.092;2023-10-09T09:41:33;4.68;;;1.90;;
66585;SDS011;53444;45.822;16.092;2023-10-09T09:44:11;2.55;;;1.20;;
66585;SDS011;53444;45.822;16.092;2023-10-09T09:46:57;2.85;;;1.58;;
66585;SDS011;53444;45.822;16.092;2023-10-09T09:49:31;9.30;;;1.73;;
66585;SDS011;53444;45.822;16.092;2023-10-09T09:52:04;4.00;;;1.65;;
66585;SDS011;53444;45.822;16.092;2023-10-09T09:54:38;5.03;;;2.55;;
66585;SDS011;53444;45.822;16.092;2023-10-09T09:57:13;4.05;;;1.58;;
66585;SDS011;53444;45.822;16.092;2023-10-09T09:59:57;2.80;;;1.38;;
66585;SDS011;53444;45.822;16.092;2023-10-09T10:02:54;3.50;;;1.70;;
66585;SDS011;53444;45.822;16.092;2023-10-09T10:05:26;6.25;;;1.63;;
66585;SDS011;53444;45.822;16.092;2023-10-09T10:07:59;5.07;;;1.40;;
66585;SDS011;53444;45.822;16.092;2023-10-09T10:10:45;2.90;;;1.40;;
66585;SDS011;53444;45.822;16.092;2023-10-09T10:16:37;3.53;;;1.50;;
66585;SDS011;53444;45.822;16.092;2023-10-09T10:23:15;2.58;;;1.70;;
66585;SDS011;53444;45.822;16.092;2023-10-09T10:25:50;5.10;;;2.17;;
66585;SDS011;53444;45.822;16.092;2023-10-09T10:29:19;4.63;;;2.30;;
66585;SDS011;53444;45.822;16.092;2023-10-09T10:32:02;3.55;;;1.65;;
66585;SDS011;53444;45.822;16.092;2023-10-09T10:37:47;3.72;;;1.90;;
66585;SDS011;53444;45.822;16.092;2023-10-09T10:43:49;5.38;;;1.80;;
66585;SDS011;53444;45.822;16.092;2023-10-09T10:46:27;3.97;;;1.58;;
66585;SDS011;53444;45.822;16.092;2023-10-09T10:49:14;3.20;;;1.80;;
66585;SDS011;53444;45.822;16.092;2023-10-09T10:51:45;5.03;;;1.80;;
66585;SDS011;53444;45.822;16.092;2023-10-09T10:54:21;3.65;;;1.73;;
66585;SDS011;53444;45.822;16.092;2023-10-09T10:57:19;2.85;;;1.30;;
66585;SDS011;53444;45.822;16.092;2023-10-09T10:59:58;4.13;;;1.40;;
66585;SDS011;53444;45.822;16.092;2023-10-09T11:02:48;4.10;;;1.77;;
66585;SDS011;53444;45.822;16.092;2023-10-09T11:08:24;2.70;;;1.23;;
66585;SDS011;53444;45.822;16.092;2023-10-09T11:11:10;3.38;;;1.02;;
66585;SDS011;53444;45.822;16.092;2023-10-09T11:13:46;3.33;;;1.40;;
66585;SDS011;53444;45.822;16.092;2023-10-09T11:16:24;5.43;;;1.70;;
66585;SDS011;53444;45.822;16.092;2023-10-09T11:19:14;3.28;;;1.33;;
66585;SDS011;53444;45.822;16.092;2023-10-09T11:22:01;4.32;;;1.50;;
66585;SDS011;53444;45.822;16.092;2023-10-09T11:25:01;2.45;;;1.10;;
66585;SDS011;53444;45.822;16.092;2023-10-09T11:27:54;2.55;;;1.30;;
66585;SDS011;53444;45.822;16.092;2023-10-09T11:31:02;2.47;;;1.63;;
66585;SDS011;53444;45.822;16.092;2023-10-09T11:33:54;6.07;;;1.50;;
66585;SDS011;53444;45.822;16.092;2023-10-09T11:36:48;1.75;;;1.35;;
66585;SDS011;53444;45.822;16.092;2023-10-09T11:40:28;4.72;;;1.48;;
66585;SDS011;53444;45.822;16.092;2023-10-09T11:43:26;2.65;;;1.33;;
66585;SDS011;53444;45.822;16.092;2023-10-09T11:46:20;3.40;;;1.50;;
66585;SDS011;53444;45.822;16.092;2023-10-09T11:49:13;2.70;;;1.60;;
66585;SDS011;53444;45.822;16.092;2023-10-09T11:55:19;2.78;;;1.30;;
66585;SDS011;53444;45.822;16.092;2023-10-09T11:58:13;3.38;;;1.13;;
66585;SDS011;53444;45.822;16.092;2023-10-09T12:00:48;3.57;;;1.43;;
66585;SDS011;53444;45.822;16.092;2023-10-09T12:03:38;2.35;;;1.20;;
66585;SDS011;53444;45.822;16.092;2023-10-09T12:06:16;3.35;;;1.50;;
66585;SDS011;53444;45.822;16.092;2023-10-09T12:09:06;3.88;;;1.45;;
66585;SDS011;53444;45.822;16.092;2023-10-09T12:11:52;2.70;;;1.20;;
66585;SDS011;53444;45.822;16.092;2023-10-09T12:19:42;5.38;;;1.75;;
66585;SDS011;53444;45.822;16.092;2023-10-09T12:28:30;5.10;;;1.83;;
66585;SDS011;53444;45.822;16.092;2023-10-09T12:31:32;4.87;;;1.60;;
66585;SDS011;53444;45.822;16.092;2023-10-09T12:34:07;6.63;;;1.92;;
66585;SDS011;53444;45.822;16.092;2023-10-09T12:37:39;3.72;;;1.60;;
66585;SDS011;53444;45.822;16.092;2023-10-09T12:40:36;3.47;;;1.83;;
66585;SDS011;53444;45.822;16.092;2023-10-09T12:48:23;3.03;;;1.70;;
66585;SDS011;53444;45.822;16.092;2023-10-09T12:54:08;4.30;;;2.22;;
66585;SDS011;53444;45.822;16.092;2023-10-09T12:56:34;2.95;;;1.98;;
66585;SDS011;53444;45.822;16.092;2023-10-09T13:02:23;4.22;;;2.03;;
66585;SDS011;53444;45.822;16.092;2023-10-09T13:04:56;2.75;;;1.80;;
66585;SDS011;53444;45.822;16.092;2023-10-09T13:07:23;4.28;;;2.10;;
66585;SDS011;53444;45.822;16.092;2023-10-09T13:09:53;2.22;;;1.58;;
66585;SDS011;53444;45.822;16.092;2023-10-09T13:13:21;4.27;;;1.90;;
66585;SDS011;53444;45.822;16.092;2023-10-09T13:15:44;3.45;;;1.70;;
66585;SDS011;53444;45.822;16.092;2023-10-09T13:18:11;3.72;;;1.98;;
66585;SDS011;53444;45.822;16.092;2023-10-09T13:20:47;5.85;;;2.38;;
66585;SDS011;53444;45.822;16.092;2023-10-09T13:23:20;4.20;;;2.80;;
66585;SDS011;53444;45.822;16.092;2023-10-09T13:26:25;4.43;;;2.17;;
66585;SDS011;53444;45.822;16.092;2023-10-09T13:29:13;4.75;;;1.90;;
66585;SDS011;53444;45.822;16.092;2023-10-09T13:31:50;3.42;;;2.22;;
66585;SDS011;53444;45.822;16.092;2023-10-09T13:34:23;4.70;;;2.17;;
66585;SDS011;53444;45.822;16.092;2023-10-09T13:37:05;5.55;;;2.10;;
66585;SDS011;53444;45.822;16.092;2023-10-09T13:39:58;4.07;;;2.07;;
66585;SDS011;53444;45.822;16.092;2023-10-09T13:46:02;4.05;;;1.92;;
66585;SDS011;53444;45.822;16.092;2023-10-09T13:51:19;4.20;;;1.90;;
66585;SDS011;53444;45.822;16.092;2023-10-09T13:53:50;4.50;;;2.07;;
66585;SDS011;53444;45.822;16.092;2023-10-09T13:56:29;5.13;;;2.13;;
66585;SDS011;53444;45.822;16.092;2023-10-09T14:02:23;3.33;;;2.22;;
66585;SDS011;53444;45.822;16.092;2023-10-09T14:05:05;5.57;;;2.53;;
66585;SDS011;53444;45.822;16.092;2023-10-09T14:07:38;3.93;;;3.03;;
66585;SDS011;53444;45.822;16.092;2023-10-09T14:16:35;6.03;;;2.00;;
66585;SDS011;53444;45.822;16.092;2023-10-09T14:19:23;5.78;;;2.85;;
66585;SDS011;53444;45.822;16.092;2023-10-09T14:23:02;4.90;;;2.40;;
66585;SDS011;53444;45.822;16.092;2023-10-09T14:25:57;4.43;;;2.53;;
66585;SDS011;53444;45.822;16.092;2023-10-09T14:28:36;4.18;;;2.50;;
66585;SDS011;53444;45.822;16.092;2023-10-09T14:31:14;3.45;;;1.92;;
66585;SDS011;53444;45.822;16.092;2023-10-09T14:36:31;4.57;;;2.13;;
66585;SDS011;53444;45.822;16.092;2023-10-09T14:39:18;7.28;;;1.80;;
66585;SDS011;53444;45.822;16.092;2023-10-09T14:42:35;4.68;;;2.00;;
66585;SDS011;53444;45.822;16.092;2023-10-09T14:51:36;4.20;;;2.20;;
66585;SDS011;53444;45.822;16.092;2023-10-09T14:59:25;5.97;;;2.40;;
66585;SDS011;53444;45.822;16.092;2023-10-09T15:02:19;7.75;;;2.47;;
66585;SDS011;53444;45.822;16.092;2023-10-09T15:05:48;5.10;;;2.50;;
66585;SDS011;53444;45.822;16.092;2023-10-09T15:12:01;5.00;;;2.10;;
66585;SDS011;53444;45.822;16.092;2023-10-09T15:14:52;4.72;;;2.17;;
66585;SDS011;53444;45.822;16.092;2023-10-09T15:17:24;3.47;;;1.90;;
66585;SDS011;53444;45.822;16.092;2023-10-09T15:22:57;2.72;;;1.70;;
66585;SDS011;53444;45.822;16.092;2023-10-09T15:25:26;5.13;;;1.75;;
66585;SDS011;53444;45.822;16.092;2023-10-09T15:28:08;10.20;;;2.42;;
66585;SDS011;53444;45.822;16.092;2023-10-09T15:30:48;6.93;;;2.50;;
66585;SDS011;53444;45.822;16.092;2023-10-09T15:38:42;5.70;;;2.55;;
66585;SDS011;53444;45.822;16.092;2023-10-09T15:41:09;4.90;;;2.53;;
66585;SDS011;53444;45.822;16.092;2023-10-09T15:43:38;5.57;;;2.75;;
66585;SDS011;53444;45.822;16.092;2023-10-09T15:52:14;6.53;;;2.90;;
66585;SDS011;53444;45.822;16.092;2023-10-09T15:54:56;5.50;;;2.60;;
66585;SDS011;53444;45.822;16.092;2023-10-09T15:57:32;6.60;;;2.95;;
66585;SDS011;53444;45.822;16.092;2023-10-09T16:00:00;6.43;;;2.67;;
66585;SDS011;53444;45.822;16.092;2023-10-09T16:02:30;6.43;;;2.67;;
66585;SDS011;53444;45.822;16.092;2023-10-09T16:04:58;7.55;;;2.95;;
66585;SDS011;53444;45.822;16.092;2023-10-09T16:07:25;5.68;;;2.88;;
66585;SDS011;53444;45.822;16.092;2023-10-09T16:10:03;9.20;;;2.95;;
66585;SDS011;53444;45.822;16.092;2023-10-09T16:12:31;5.17;;;2.70;;
66585;SDS011;53444;45.822;16.092;2023-10-09T16:15:10;10.23;;;3.83;;
66585;SDS011;53444;45.822;16.092;2023-10-09T16:17:40;7.45;;;3.70;;
66585;SDS011;53444;45.822;16.092;2023-10-09T16:20:09;7.20;;;3.25;;
66585;SDS011;53444;45.822;16.092;2023-10-09T16:22:46;7.22;;;3.20;;
66585;SDS011;53444;45.822;16.092;2023-10-09T16:25:14;7.40;;;3.17;;
66585;SDS011;53444;45.822;16.092;2023-10-09T16:27:48;4.95;;;2.88;;
66585;SDS011;53444;45.822;16.092;2023-10-09T16:30:19;8.57;;;3.10;;
66585;SDS011;53444;45.822;16.092;2023-10-09T16:32:48;6.95;;;3.13;;
66585;SDS011;53444;45.822;16.092;2023-10-09T16:35:17;8.65;;;3.25;;
66585;SDS011;53444;45.822;16.092;2023-10-09T16:37:47;11.70;;;3.70;;
66585;SDS011;53444;45.822;16.092;2023-10-09T16:40:15;9.23;;;3.75;;
66585;SDS011;53444;45.822;16.092;2023-10-09T16:42:45;7.18;;;3.55;;
66585;SDS011;53444;45.822;16.092;2023-10-09T16:45:14;7.45;;;3.60;;
66585;SDS011;53444;45.822;16.092;2023-10-09T16:47:46;11.35;;;4.35;;
66585;SDS011;53444;45.822;16.092;2023-10-09T16:50:13;8.40;;;4.70;;
66585;SDS011;53444;45.822;16.092;2023-10-09T16:52:43;7.70;;;4.50;;
66585;SDS011;53444;45.822;16.092;2023-10-09T16:55:10;12.35;;;4.80;;
66585;SDS011;53444;45.822;16.092;2023-10-09T16:57:44;8.95;;;5.20;;
66585;SDS011;53444;45.822;16.092;2023-10-09T17:00:15;9.38;;;5.00;;
66585;SDS011;53444;45.822;16.092;2023-10-09T17:02:55;9.77;;;5.20;;
66585;SDS011;53444;45.822;16.092;2023-10-09T17:05:23;10.18;;;4.38;;
66585;SDS011;53444;45.822;16.092;2023-10-09T17:07:59;8.00;;;4.68;;
66585;SDS011;53444;45.822;16.092;2023-10-09T17:10:26;8.75;;;4.50;;
66585;SDS011;53444;45.822;16.092;2023-10-09T17:12:56;10.05;;;4.47;;
66585;SDS011;53444;45.822;16.092;2023-10-09T17:15:25;6.00;;;4.33;;
66585;SDS011;53444;45.822;16.092;2023-10-09T17:18:12;8.95;;;5.10;;
66585;SDS011;53444;45.822;16.092;2023-10-09T17:20:45;10.65;;;5.10;;
66585;SDS011;53444;45.822;16.092;2023-10-09T17:23:32;9.65;;;4.68;;
66585;SDS011;53444;45.822;16.092;2023-10-09T17:26:10;11.23;;;5.25;;
66585;SDS011;53444;45.822;16.092;2023-10-09T17:28:40;9.60;;;4.70;;
66585;SDS011;53444;45.822;16.092;2023-10-09T17:31:12;9.27;;;5.07;;
66585;SDS011;53444;45.822;16.092;2023-10-09T17:33:47;9.18;;;4.90;;
66585;SDS011;53444;45.822;16.092;2023-10-09T17:39:07;10.18;;;5.30;;
66585;SDS011;53444;45.822;16.092;2023-10-09T17:41:41;11.87;;;5.57;;
66585;SDS011;53444;45.822;16.092;2023-10-09T17:44:10;10.93;;;5.28;;
66585;SDS011;53444;45.822;16.092;2023-10-09T17:46:40;11.48;;;4.95;;
66585;SDS011;53444;45.822;16.092;2023-10-09T17:49:12;8.80;;;4.95;;
66585;SDS011;53444;45.822;16.092;2023-10-09T17:51:42;11.85;;;5.15;;
66585;SDS011;53444;45.822;16.092;2023-10-09T17:55:02;10.57;;;5.13;;
66585;SDS011;53444;45.822;16.092;2023-10-09T18:00:17;12.18;;;6.15;;
66585;SDS011;53444;45.822;16.092;2023-10-09T18:12:19;16.35;;;8.40;;
66585;SDS011;53444;45.822;16.092;2023-10-09T18:18:40;14.98;;;7.80;;
66585;SDS011;53444;45.822;16.092;2023-10-09T18:21:09;18.77;;;8.25;;
66585;SDS011;53444;45.822;16.092;2023-10-09T18:23:37;14.63;;;8.13;;